Port Isabel, TX (78578)

4:56 PM CST on December 06, 2016 (GMT -0600)
APRSWXNET | | Change Station

Elev 6 ft 26.09 °N, 97.29 °W | Updated 40 minutes ago

Clear
Clear
80 °F
Feels Like 82 °F
N
3
Wind Variable Wind from SSE
Gusts 6.0 mph

Today
High -- | Low -- °F
--% Chance of Precip.
Yesterday
High -- | Low -- °F
Precip. -- in
Pressure 29.90 in
Visibility 10.0 miles
Clouds Clear
Heat Index 82 °F
Dew Point 65 °F
Humidity 60%
Rainfall in
Snow Depth Not available.
7:02 AM 5:37 PM
Waxing Crescent, 46% visible
METAR KPIL 062253Z AUTO 15005KT 10SM CLR 25/17 A2990 RMK AO2 SLP123 T02500172
Pressure 29.90 in
Visibility 10.0 miles
Clouds Clear
Heat Index 82 °F
Dew Point 65 °F
Humidity 60%
Rainfall in
Snow Depth Not available.
7:02 AM 5:37 PM
Waxing Crescent, 46% visible
METAR KPIL 062253Z AUTO 15005KT 10SM CLR 25/17 A2990 RMK AO2 SLP123 T02500172

10-Day Weather Forecast

Almanac

Astronomy

Dec. 06, 2016 Rise Set
Actual Time
Civil Twilight
Nautical Twilight
Astronomical Twilight
Moon
Length of Visible Light
Length of Day
Tomorrow will be .
, % of the Moon is Illuminated

Today's Extremes

State Highs State Lows

Community

WunderPhotos

Upload Photos

1,956,042 photos uploaded!

WunderBlog® & News

Nearby

Air Quality

  Air Quality AQ Index Pollutant
Not available.

Snow Depth

Station Depth Elevation

Earthquake Activity

City Distance Mag. Time & Date
Minimum magnitude displayed is 2.5.

Coastal Water Temperatures

Place Temperature

Stations

Nearby Weather Stations

Station Location Temp. Windchill Dew Point Humidity Wind Precip. Elev Updated Type
                   

Watches & Warnings

There are currently no watches in effect.